Time;durP1;ratioP1;P1;durP2;ratioP2;P2;SDS_P1;SDS_P2;PMS_P1;PMS_P2;Temp;Humidity;BMP_temperature;BMP_pressure;BME280_temperature;BME280_humidity;BME280_pressure;Samples;Min_cycle;Max_cycle;Signal;HPM_P1;HPM_P2
2022/09/19 00:04:33;;;;;;;12.57;1.80;;;;;;;12.19;52.18;100469.19;10094439;29;20322;-81
2022/09/19 00:09:55;;;;;;;10.13;2.20;;;;;;;11.80;53.36;100459.97;10093676;29;20245;-80
2022/09/19 00:15:17;;;;;;;8.07;1.33;;;;;;;12.27;51.55;100463.47;10107881;29;20269;-81
2022/09/19 00:20:40;;;;;;;8.90;2.00;;;;;;;11.78;52.73;100459.47;10084695;29;20241;-82
2022/09/19 00:26:06;;;;;;;8.27;1.27;;;;;;;11.77;53.06;100466.28;10101709;29;20584;-81
2022/09/19 00:31:28;;;;;;;12.77;2.10;;;;;;;11.75;52.86;100465.81;10086370;29;20241;-80
2022/09/19 00:36:50;;;;;;;11.40;1.77;;;;;;;12.21;52.21;100464.84;10086754;29;20408;-80
2022/09/19 00:42:15;;;;;;;8.73;1.37;;;;;;;12.23;51.29;100470.16;10069982;29;20643;-81
2022/09/19 00:47:42;;;;;;;10.13;1.80;;;;;;;11.64;53.47;100481.47;10083400;29;20234;-80
2022/09/19 00:53:07;;;;;;;9.40;1.83;;;;;;;12.29;51.74;100489.38;10065232;29;20600;-80
2022/09/19 00:58:34;;;;;;;9.57;1.90;;;;;;;12.20;52.03;100496.28;10053887;29;20234;-80
2022/09/19 01:03:56;;;;;;;13.93;2.53;;;;;;;12.55;51.06;100491.22;10112456;29;20295;-79
2022/09/19 01:09:35;;;;;;;12.33;2.43;;;;;;;12.67;50.58;100492.09;10073766;29;20285;-80
2022/09/19 01:15:01;;;;;;;9.33;1.53;;;;;;;12.40;52.25;100506.78;10103903;29;20265;-79
2022/09/19 01:20:38;;;;;;;9.50;2.33;;;;;;;13.18;49.64;100491.94;10096899;29;20234;-80
2022/09/19 01:26:10;;;;;;;11.17;1.93;;;;;;;12.40;51.61;100501.13;10092396;29;20257;-81
2022/09/19 01:31:36;;;;;;;12.57;2.50;;;;;;;12.95;49.74;100498.00;10091012;29;20233;-80
2022/09/19 01:37:09;;;;;;;14.93;1.93;;;;;;;13.01;49.12;100507.13;10065662;29;20305;-80
2022/09/19 01:42:31;;;;;;;10.40;1.73;;;;;;;12.38;51.01;100511.16;10073245;29;20245;-81
2022/09/19 01:48:05;;;;;;;13.63;2.07;;;;;;;12.40;50.96;100520.09;10080725;29;20259;-81
2022/09/19 01:53:38;;;;;;;12.70;1.97;;;;;;;12.58;50.90;100519.63;10076157;29;20248;-80
2022/09/19 01:59:29;;;;;;;9.93;1.83;;;;;;;12.55;51.31;100517.50;10105160;29;20584;-81
2022/09/19 02:05:14;;;;;;;5.90;1.70;;;;;;;12.63;50.54;100527.09;10099179;29;20258;-80
2022/09/19 02:10:42;;;;;;;7.90;2.00;;;;;;;12.44;50.98;100535.22;10088556;29;20234;-80
2022/09/19 02:16:12;;;;;;;9.27;1.73;;;;;;;12.82;50.30;100523.75;10087381;29;20671;-81
2022/09/19 02:21:41;;;;;;;10.40;1.83;;;;;;;12.97;49.69;100518.28;10093816;29;20257;-81
2022/09/19 02:27:10;;;;;;;9.80;1.73;;;;;;;12.97;49.60;100523.13;10100542;29;20679;-81
2022/09/19 02:32:35;;;;;;;13.33;2.17;;;;;;;12.23;51.61;100538.00;10099283;29;20205;-81
2022/09/19 02:38:10;;;;;;;7.87;1.60;;;;;;;11.70;53.44;100538.59;10097177;29;20209;-81
2022/09/19 02:43:39;;;;;;;8.27;2.20;;;;;;;12.03;52.13;100541.59;10109739;29;20610;-81
2022/09/19 02:49:02;;;;;;;11.80;1.97;;;;;;;11.84;52.53;100548.50;10099742;29;20218;-80
2022/09/19 02:54:30;;;;;;;8.43;1.40;;;;;;;12.04;52.12;100554.53;10076365;29;20257;-80
2022/09/19 02:59:58;;;;;;;11.87;1.93;;;;;;;11.42;53.96;100544.63;10086178;29;20214;-80
2022/09/19 03:05:21;;;;;;;14.90;2.37;;;;;;;12.10;52.35;100553.19;10078266;29;20476;-80
2022/09/19 03:10:46;;;;;;;16.93;2.83;;;;;;;12.04;51.85;100554.53;10099019;29;20269;-81
2022/09/19 03:16:14;;;;;;;11.30;2.20;;;;;;;11.84;53.00;100554.16;10091358;29;21055;-80
2022/09/19 03:21:38;;;;;;;8.47;1.70;;;;;;;12.05;52.06;100564.69;10099966;29;20285;-80
2022/09/19 03:27:05;;;;;;;13.50;2.30;;;;;;;12.36;51.10;100553.06;10079786;29;20270;-80
2022/09/19 03:32:27;;;;;;;10.57;1.60;;;;;;;12.11;51.34;100555.69;10111531;29;20232;-80
2022/09/19 03:37:50;;;;;;;8.73;2.20;;;;;;;11.94;51.86;100555.75;10104721;29;20221;-80
2022/09/19 03:43:12;;;;;;;13.73;2.17;;;;;;;11.98;52.18;100563.22;10104478;29;20210;-80
2022/09/19 03:48:38;;;;;;;10.47;2.10;;;;;;;12.09;52.12;100568.50;10114156;29;20205;-80
2022/09/19 03:54:01;;;;;;;11.77;1.90;;;;;;;11.78;52.86;100568.78;10112799;29;20300;-80
2022/09/19 03:59:24;;;;;;;11.43;2.13;;;;;;;12.37;50.78;100566.88;10103540;29;20262;-80
2022/09/19 04:04:46;;;;;;;13.77;2.80;;;;;;;12.57;50.82;100568.03;10093232;29;20603;-81
2022/09/19 04:10:08;;;;;;;12.60;2.60;;;;;;;11.93;52.41;100577.53;10096405;29;20301;-80
2022/09/19 04:15:31;;;;;;;14.87;2.60;;;;;;;12.48;51.73;100573.78;10106799;29;20304;-80
2022/09/19 04:20:55;;;;;;;15.00;2.13;;;;;;;12.37;52.01;100580.16;10095473;29;20206;-81
2022/09/19 04:26:36;;;;;;;10.47;2.17;;;;;;;12.54;50.87;100592.16;10118747;29;20245;-81
2022/09/19 04:32:02;;;;;;;12.63;1.80;;;;;;;12.27;52.21;100596.28;10110233;29;20289;-80
2022/09/19 04:37:29;;;;;;;13.60;2.37;;;;;;;12.49;51.22;100592.38;10131280;29;20285;-83
2022/09/19 04:42:52;;;;;;;14.43;2.63;;;;;;;12.66;51.25;100597.91;10091211;29;20308;-81
2022/09/19 04:48:19;;;;;;;11.03;1.80;;;;;;;13.31;49.56;100598.41;10113469;29;20209;-81
2022/09/19 04:53:41;;;;;;;14.47;2.70;;;;;;;13.44;49.56;100610.59;10105257;29;20305;-88
2022/09/19 04:59:04;;;;;;;14.03;1.80;;;;;;;13.03;50.47;100606.63;10105716;29;20718;-80
2022/09/19 05:04:26;;;;;;;10.97;1.70;;;;;;;13.25;50.23;100613.97;10099257;29;20202;-80
2022/09/19 05:09:50;;;;;;;13.17;2.10;;;;;;;12.64;51.42;100624.91;10064830;29;20486;-80
2022/09/19 05:15:13;;;;;;;15.07;2.00;;;;;;;13.29;50.11;100629.88;10065196;29;20520;-80
2022/09/19 05:20:38;;;;;;;9.43;2.10;;;;;;;12.83;50.89;100630.06;10098337;29;20209;-81
2022/09/19 05:26:05;;;;;;;10.43;2.20;;;;;;;13.02;50.36;100641.75;10101533;29;20230;-80
2022/09/19 05:31:30;;;;;;;9.73;2.20;;;;;;;12.64;51.36;100636.22;10101463;29;20205;-80
2022/09/19 05:36:58;;;;;;;12.90;2.27;;;;;;;12.20;52.48;100638.41;10103257;29;20285;-81
2022/09/19 05:42:34;;;;;;;13.63;2.47;;;;;;;12.95;50.46;100647.94;10102613;29;20292;-80
2022/09/19 05:48:05;;;;;;;13.03;2.40;;;;;;;12.53;51.68;100658.38;10102699;29;20254;-81
2022/09/19 05:59:18;;;;;;;18.20;3.83;;;;;;;12.77;51.41;100673.91;10117598;29;20206;-80
2022/09/19 06:04:40;;;;;;;13.43;2.33;;;;;;;12.84;50.52;100662.84;10100267;29;20566;-80
2022/09/19 06:10:06;;;;;;;9.73;2.50;;;;;;;13.26;49.93;100673.06;10097177;29;20683;-81
2022/09/19 06:15:30;;;;;;;16.70;2.93;;;;;;;13.38;49.93;100675.94;10098306;29;20234;-80
2022/09/19 06:21:12;;;;;;;8.13;2.17;;;;;;;13.01;50.15;100685.38;10090830;29;20254;-80
2022/09/19 06:26:35;;;;;;;16.03;2.63;;;;;;;12.65;51.53;100694.41;10098356;29;20225;-80
2022/09/19 06:32:01;;;;;;;11.13;2.17;;;;;;;12.29;51.72;100697.69;10097038;29;20213;-80
2022/09/19 06:37:36;;;;;;;14.93;2.50;;;;;;;13.22;49.89;100708.03;10087151;29;20225;-80
2022/09/19 06:43:02;;;;;;;9.50;2.43;;;;;;;12.94;50.41;100716.19;10101114;29;20197;-80
2022/09/19 06:48:48;;;;;;;8.60;2.20;;;;;;;12.52;51.98;100720.91;10099204;29;20269;-79
2022/09/19 06:54:17;;;;;;;10.47;2.83;;;;;;;13.17;50.86;100722.34;10094116;29;20273;-80
2022/09/19 06:59:39;;;;;;;13.30;2.50;;;;;;;12.83;50.41;100726.25;10096271;29;20599;-80
2022/09/19 07:05:04;;;;;;;9.13;2.23;;;;;;;13.02;51.16;100735.13;10114405;29;20222;-80
2022/09/19 07:10:40;;;;;;;8.50;1.80;;;;;;;13.07;50.35;100740.59;10106327;29;20655;-79
2022/09/19 07:16:06;;;;;;;11.23;2.50;;;;;;;12.88;51.10;100734.56;10094729;29;20293;-80
2022/09/19 07:21:30;;;;;;;8.73;2.43;;;;;;;13.65;49.51;100745.34;10099184;29;20504;-79
2022/09/19 07:27:00;;;;;;;11.60;2.83;;;;;;;13.59;50.06;100752.38;10096964;29;20511;-79
2022/09/19 07:32:22;;;;;;;11.80;2.40;;;;;;;13.92;48.91;100755.25;10081207;29;20266;-80
2022/09/19 07:37:50;;;;;;;11.13;2.27;;;;;;;13.81;49.74;100759.69;10118563;29;20233;-80
2022/09/19 07:43:30;;;;;;;9.40;2.20;;;;;;;13.96;50.28;100756.19;10127057;29;20217;-80
2022/09/19 07:49:12;;;;;;;10.87;2.80;;;;;;;14.06;49.30;100772.00;10104618;29;20194;-80
2022/09/19 07:54:46;;;;;;;11.70;2.43;;;;;;;13.59;50.18;100780.69;10097163;29;20619;-80
2022/09/19 08:00:09;;;;;;;13.17;2.23;;;;;;;14.35;49.37;100786.00;10098474;29;20258;-80
2022/09/19 08:05:37;;;;;;;10.43;2.17;;;;;;;14.27;49.37;100786.09;10097855;29;20206;-80
2022/09/19 08:11:00;;;;;;;8.30;1.77;;;;;;;14.19;50.35;100792.72;10113167;29;20570;-80
2022/09/19 08:16:23;;;;;;;10.90;2.20;;;;;;;14.50;49.38;100798.69;10099343;29;20234;-80
2022/09/19 08:21:46;;;;;;;8.43;1.53;;;;;;;15.26;47.56;100795.22;10105512;29;20205;-80
2022/09/19 08:27:14;;;;;;;8.87;1.80;;;;;;;14.63;47.28;100803.19;10090103;29;20258;-85
2022/09/19 08:32:36;;;;;;;9.40;1.67;;;;;;;14.30;49.18;100808.94;10105150;29;20206;-80
2022/09/19 08:38:00;;;;;;;7.87;1.97;;;;;;;15.01;47.79;100797.25;10105240;29;20281;-80
2022/09/19 08:43:41;;;;;;;10.77;1.97;;;;;;;15.63;45.61;100798.84;10120567;29;20202;-80
2022/09/19 08:49:14;;;;;;;8.77;1.73;;;;;;;15.59;47.36;100797.09;10104572;29;20198;-80
2022/09/19 08:54:47;;;;;;;9.73;1.70;;;;;;;15.84;45.88;100807.22;10104202;29;20238;-80
2022/09/19 09:00:16;;;;;;;10.03;1.73;;;;;;;16.40;44.84;100795.88;10101014;29;20210;-80
2022/09/19 09:05:45;;;;;;;8.67;1.43;;;;;;;16.65;44.18;100800.22;10090887;29;20198;-80
2022/09/19 09:11:42;;;;;;;6.37;1.10;;;;;;;16.74;43.52;100806.53;10103622;29;20198;-80
2022/09/19 09:17:17;;;;;;;10.73;1.87;;;;;;;15.23;46.49;100820.69;10120301;29;20237;-80
2022/09/19 09:22:47;;;;;;;6.33;1.47;;;;;;;16.24;45.20;100814.91;10090602;29;20703;-80
2022/09/19 09:28:40;;;;;;;10.60;1.20;;;;;;;14.75;45.97;100816.56;10096568;29;20230;-79
2022/09/19 09:34:35;;;;;;;8.43;1.23;;;;;;;16.08;44.91;100811.97;10096551;29;20512;-80
2022/09/19 09:40:09;;;;;;;9.23;1.03;;;;;;;16.64;42.66;100804.25;10102061;29;20206;-79
2022/09/19 09:45:40;;;;;;;6.43;0.87;;;;;;;16.30;42.07;100807.75;10082533;29;20257;-80
2022/09/19 09:51:04;;;;;;;5.80;1.10;;;;;;;16.42;42.33;100810.53;10101717;29;20206;-80
2022/09/19 09:56:28;;;;;;;4.87;0.67;;;;;;;15.70;42.14;100807.59;10101301;29;20230;-80
2022/09/19 10:08:02;;;;;;;7.63;1.27;;;;;;;15.16;42.87;100818.41;10084624;29;20273;-80
2022/09/19 10:13:28;;;;;;;6.37;0.97;;;;;;;16.24;41.86;100807.19;10110289;29;20229;-80
2022/09/19 10:18:56;;;;;;;7.23;1.00;;;;;;;15.85;40.93;100808.88;10085743;29;20508;-80
2022/09/19 10:24:52;;;;;;;6.10;1.03;;;;;;;16.99;39.38;100789.28;10101038;29;20627;-80
2022/09/19 10:30:24;;;;;;;5.50;1.10;;;;;;;15.36;40.93;100794.75;10100257;29;20234;-80
2022/09/19 10:35:58;;;;;;;8.47;1.00;;;;;;;16.17;40.44;100790.72;10090984;29;20227;-80
2022/09/19 10:41:22;;;;;;;6.10;1.03;;;;;;;16.53;40.85;100777.53;10094664;29;20257;-81
2022/09/19 10:47:05;;;;;;;4.20;0.87;;;;;;;17.27;38.77;100784.31;10115727;29;20198;-81
2022/09/19 10:52:33;;;;;;;8.23;0.90;;;;;;;16.06;42.21;100809.47;10099146;29;20210;-82
2022/09/19 10:58:04;;;;;;;7.03;1.10;;;;;;;15.37;46.81;100798.41;10099861;29;20277;-80
2022/09/19 11:03:39;;;;;;;9.13;1.70;;;;;;;16.91;43.14;100789.09;10097770;29;20205;-81
2022/09/19 11:09:09;;;;;;;8.13;1.20;;;;;;;17.48;44.79;100779.09;10110216;29;20201;-81
2022/09/19 11:14:38;;;;;;;8.83;1.10;;;;;;;17.23;43.94;100783.38;10095201;29;20237;-81
2022/09/19 11:20:34;;;;;;;5.83;1.20;;;;;;;17.08;42.42;100778.53;10094381;29;20238;-80
2022/09/19 11:26:18;;;;;;;8.00;0.93;;;;;;;17.35;42.19;100774.72;10099428;29;20225;-80
2022/09/19 11:31:47;;;;;;;7.07;1.20;;;;;;;16.58;42.77;100780.91;10097956;29;20255;-80
2022/09/19 11:37:38;;;;;;;5.20;0.80;;;;;;;17.08;43.08;100775.69;10101801;29;20230;-80
2022/09/19 11:43:12;;;;;;;6.50;1.20;;;;;;;17.14;40.97;100779.91;10114200;29;20248;-80
2022/09/19 11:49:13;;;;;;;6.33;1.30;;;;;;;17.41;40.39;100767.53;10113563;29;20210;-80
2022/09/19 11:54:55;;;;;;;5.10;0.80;;;;;;;16.91;39.28;100772.03;10058859;29;20213;-80
2022/09/19 12:00:23;;;;;;;6.47;0.67;;;;;;;16.71;40.06;100772.28;10094017;29;20198;-80
2022/09/19 12:06:01;;;;;;;2.50;0.50;;;;;;;15.99;39.77;100780.84;10104994;29;20502;-80
2022/09/19 12:11:49;;;;;;;4.80;0.57;;;;;;;16.18;37.99;100769.63;10103836;29;20238;-80
2022/09/19 12:17:26;;;;;;;4.03;0.77;;;;;;;15.41;39.21;100777.44;10099558;29;20233;-85
2022/09/19 12:29:08;;;;;;;7.00;0.70;;;;;;;15.10;45.83;100771.59;10101306;29;20198;-80
2022/09/19 12:34:38;;;;;;;6.20;0.87;;;;;;;16.50;43.19;100778.25;10105085;29;20238;-80
2022/09/19 12:40:28;;;;;;;6.37;0.87;;;;;;;15.82;43.85;100779.13;10092895;29;20230;-80
2022/09/19 12:46:09;;;;;;;4.80;1.03;;;;;;;16.98;42.50;100771.38;10139124;29;20603;-80
2022/09/19 12:51:49;;;;;;;6.43;0.50;;;;;;;17.61;41.33;100765.56;10100336;29;20556;-80
2022/09/19 12:57:16;;;;;;;2.72;0.40;;;;;;;17.21;38.04;100774.38;10115604;29;20281;-80
2022/09/19 13:02:45;;;;;;;2.75;0.43;;;;;;;17.06;39.52;100778.06;10135386;29;20197;-80
2022/09/19 13:08:12;;;;;;;3.27;0.30;;;;;;;17.15;38.15;100784.41;10139825;29;20280;-80
2022/09/19 13:13:51;;;;;;;2.77;0.30;;;;;;;17.60;36.49;100770.41;10137924;29;20280;-80
2022/09/19 13:24:56;;;;;;;5.13;0.73;;;;;;;17.46;37.74;100753.00;10147163;29;20233;-81
2022/09/19 13:30:48;;;;;;;2.97;0.35;;;;;;;15.95;37.38;100762.88;10129450;29;20464;-80
2022/09/19 13:36:22;;;;;;;1.87;0.53;;;;;;;16.39;38.86;100777.13;10102204;29;20678;-79
2022/09/19 13:41:49;;;;;;;3.83;0.30;;;;;;;17.10;38.81;100774.13;10116411;29;20233;-80
2022/09/19 13:47:31;;;;;;;2.20;0.43;;;;;;;16.98;41.00;100770.56;10122912;29;20260;-79
2022/09/19 13:53:01;;;;;;;2.97;0.50;;;;;;;15.59;43.39;100805.63;10121450;29;20308;-79
2022/09/19 13:58:32;;;;;;;4.37;0.40;;;;;;;14.22;47.73;100846.69;10119208;29;20300;-79
2022/09/19 14:04:52;;;;;;;1.40;0.20;;;;;;;13.64;49.19;100856.16;10099046;29;20213;-81
2022/09/19 14:09:42;;;;;;;3.03;0.20;;;;;;;14.29;48.69;100854.63;10143810;29;20516;-80
2022/09/19 14:15:28;;;;;;;0.50;0.20;;;;;;;14.44;50.65;100845.47;10113848;29;20225;-84
2022/09/19 14:20:52;;;;;;;1.80;0.20;;;;;;;14.12;49.16;100843.44;10134279;29;20225;-79
2022/09/19 14:26:19;;;;;;;1.53;0.40;;;;;;;14.65;48.79;100857.59;10120441;29;20568;-79
2022/09/19 14:32:11;;;;;;;0.90;0.23;;;;;;;14.73;48.73;100855.81;10136844;29;20216;-80
2022/09/19 14:38:09;;;;;;;3.37;0.37;;;;;;;14.14;50.94;100846.78;10124596;29;20252;-79
2022/09/19 14:43:52;;;;;;;1.90;0.40;;;;;;;15.03;50.38;100833.78;10115141;29;20209;-79
2022/09/19 14:49:22;;;;;;;4.07;2.07;;;;;;;14.30;52.62;100828.78;10138319;29;20266;-79
2022/09/19 14:55:01;;;;;;;1.17;0.70;;;;;;;15.17;51.59;100845.63;10132882;29;20258;-82
2022/09/19 15:00:29;;;;;;;4.23;1.30;;;;;;;14.55;50.95;100860.88;10130211;29;20317;-79
2022/09/19 15:05:51;;;;;;;4.40;0.83;;;;;;;14.45;51.11;100861.31;10124739;29;20626;-78
2022/09/19 15:11:15;;;;;;;2.70;0.97;;;;;;;15.18;50.16;100852.97;10118873;29;20258;-80
2022/09/19 15:16:38;;;;;;;2.77;0.57;;;;;;;14.37;51.34;100887.75;10089728;29;20309;-78
2022/09/19 15:22:00;;;;;;;4.73;0.50;;;;;;;14.52;50.21;100878.59;10082668;29;20277;-81
2022/09/19 15:27:28;;;;;;;5.03;0.70;;;;;;;14.03;51.27;100881.22;10115104;29;20194;-83
2022/09/19 15:32:57;;;;;;;2.13;0.30;;;;;;;14.05;51.54;100863.88;10096622;29;20399;-80
2022/09/19 15:38:25;;;;;;;3.23;0.80;;;;;;;15.31;49.10;100863.16;10076761;29;20229;-80
2022/09/19 15:43:48;;;;;;;1.87;0.53;;;;;;;15.27;49.96;100853.66;10108477;29;20206;-90
2022/09/19 15:49:39;;;;;;;2.17;0.50;;;;;;;14.91;52.10;100865.00;10078069;29;20317;-81
2022/09/19 15:55:02;;;;;;;2.03;0.50;;;;;;;15.16;49.56;100849.66;10099672;29;20210;-80
2022/09/19 16:00:27;;;;;;;2.30;0.43;;;;;;;15.42;49.95;100847.28;10096328;29;20252;-80
2022/09/19 16:08:57;;;;;;;4.10;0.40;;;;;;;15.55;50.67;100852.97;10104585;29;20201;-80
2022/09/19 16:11:48;;;;;;;5.53;1.00;;;;;;;15.85;49.89;100855.19;10086792;29;20205;-82
2022/09/19 16:17:15;;;;;;;3.70;0.50;;;;;;;15.58;51.23;100852.25;10091475;29;20238;-84
2022/09/19 16:22:38;;;;;;;3.40;0.80;;;;;;;15.52;49.76;100861.03;10095201;29;20290;-81
2022/09/19 16:28:01;;;;;;;3.57;0.80;;;;;;;14.98;51.72;100859.59;10109518;29;20231;-81
2022/09/19 16:33:34;;;;;;;5.20;1.73;;;;;;;15.82;49.03;100866.44;10092661;29;20210;-86
2022/09/19 16:39:02;;;;;;;5.47;1.40;;;;;;;15.43;51.02;100870.81;10076644;29;20246;-81
2022/09/19 16:44:29;;;;;;;4.40;0.73;;;;;;;15.41;51.13;100859.81;10112627;29;20522;-79
2022/09/19 16:49:53;;;;;;;4.93;0.90;;;;;;;16.10;48.72;100873.00;10099034;29;20202;-79
2022/09/19 16:55:37;;;;;;;5.47;1.37;;;;;;;15.71;49.84;100873.78;10108365;29;20214;-82
2022/09/19 17:01:00;;;;;;;4.07;1.50;;;;;;;15.31;50.79;100891.53;10133333;29;20256;-81
2022/09/19 17:06:24;;;;;;;3.93;0.73;;;;;;;13.73;52.35;100910.75;10114322;29;20273;-81
2022/09/19 17:11:47;;;;;;;2.27;0.60;;;;;;;14.47;50.88;100898.66;10074356;29;21679;-82
2022/09/19 17:17:13;;;;;;;2.03;0.50;;;;;;;14.91;48.52;100905.56;10076026;29;20265;-83
2022/09/19 17:22:35;;;;;;;2.37;0.70;;;;;;;14.49;50.88;100899.13;10094019;29;20325;-86
2022/09/19 17:27:58;;;;;;;3.87;0.40;;;;;;;14.53;51.63;100902.13;10089907;29;20243;-82
2022/09/19 17:33:22;;;;;;;3.77;0.80;;;;;;;14.05;52.46;100915.72;10099689;29;20256;-83
2022/09/19 17:38:44;;;;;;;2.03;1.03;;;;;;;14.58;50.90;100908.41;10089292;29;20741;-82
2022/09/19 17:44:08;;;;;;;3.10;0.70;;;;;;;14.55;51.79;100920.44;10079354;29;20234;-82
2022/09/19 17:49:31;;;;;;;3.33;1.17;;;;;;;14.33;50.97;100915.16;10061327;29;20230;-82
2022/09/19 17:54:54;;;;;;;5.27;0.90;;;;;;;14.18;51.51;100912.94;10077867;29;20298;-83
2022/09/19 18:00:16;;;;;;;2.93;0.90;;;;;;;14.20;51.38;100922.75;10060124;29;20257;-82
2022/09/19 18:05:38;;;;;;;5.07;1.00;;;;;;;14.65;50.88;100920.00;10058802;29;20253;-82
2022/09/19 18:11:02;;;;;;;4.30;0.90;;;;;;;14.69;50.22;100929.50;10072785;29;20231;-83
2022/09/19 18:16:26;;;;;;;4.93;1.40;;;;;;;14.76;50.46;100937.44;10080834;29;20330;-83
2022/09/19 18:21:48;;;;;;;4.17;1.20;;;;;;;14.73;50.95;100938.94;10090613;29;20564;-83
2022/09/19 18:27:12;;;;;;;5.07;1.20;;;;;;;14.87;48.95;100946.34;10100646;29;20209;-83
2022/09/19 18:32:34;;;;;;;5.60;1.60;;;;;;;14.70;50.32;100948.19;10088851;29;20242;-83
2022/09/19 18:37:58;;;;;;;4.33;1.20;;;;;;;14.42;50.79;100955.59;10087231;29;20246;-82
2022/09/19 18:43:20;;;;;;;6.30;1.20;;;;;;;15.08;48.35;100962.16;10070130;29;20237;-82
2022/09/19 18:48:42;;;;;;;4.13;1.50;;;;;;;14.82;49.67;100961.59;10092752;29;20540;-82
2022/09/19 18:54:04;;;;;;;4.07;1.47;;;;;;;14.70;49.68;100962.38;10085023;29;20217;-82
2022/09/19 18:59:27;;;;;;;4.60;1.33;;;;;;;14.75;50.39;100964.97;10086036;29;20254;-82
2022/09/19 19:04:49;;;;;;;5.53;1.40;;;;;;;14.68;50.18;100967.56;10065501;29;20242;-82
2022/09/19 19:10:11;;;;;;;9.13;1.53;;;;;;;15.12;48.32;100971.59;10073994;29;20204;-83
2022/09/19 19:15:34;;;;;;;5.27;1.63;;;;;;;14.54;50.08;100972.69;10068043;29;20266;-83
2022/09/19 19:20:56;;;;;;;7.23;1.93;;;;;;;14.77;48.81;100970.31;10057026;29;20254;-82
2022/09/19 19:26:19;;;;;;;7.17;1.70;;;;;;;14.48;49.77;100981.75;10071317;29;20426;-82
2022/09/19 19:31:41;;;;;;;8.33;2.30;;;;;;;14.42;49.47;100981.97;10073348;29;20284;-82
2022/09/19 19:37:03;;;;;;;11.53;2.20;;;;;;;14.53;48.72;100985.22;10067793;29;20335;-82
2022/09/19 19:42:25;;;;;;;10.27;1.53;;;;;;;14.30;49.56;100986.75;10063165;29;20265;-83
2022/09/19 19:47:48;;;;;;;6.20;1.40;;;;;;;14.62;48.49;100987.97;10082960;29;20255;-81
2022/09/19 19:53:10;;;;;;;9.07;1.83;;;;;;;14.22;50.47;100990.44;10067350;29;20249;-82
2022/09/19 19:58:33;;;;;;;8.83;2.47;;;;;;;14.21;50.15;100986.78;10100727;29;20264;-83
2022/09/19 20:04:06;;;;;;;8.07;2.93;;;;;;;14.02;48.45;100992.94;10099091;29;20288;-82
2022/09/19 20:09:29;;;;;;;9.80;2.80;;;;;;;13.23;51.41;100999.28;10108042;29;20191;-82
2022/09/19 20:14:51;;;;;;;9.87;1.80;;;;;;;14.28;49.38;100984.25;10101145;29;20285;-82
2022/09/19 20:20:13;;;;;;;12.17;1.83;;;;;;;14.49;47.42;100994.75;10120940;29;20328;-82
2022/09/19 20:25:36;;;;;;;10.30;1.50;;;;;;;14.51;48.65;101004.56;10101960;29;20237;-82
2022/09/19 20:31:04;;;;;;;7.57;1.03;;;;;;;14.12;47.81;101005.03;10096812;29;20250;-82
2022/09/19 20:36:27;;;;;;;6.87;1.53;;;;;;;14.52;46.93;100997.72;10103755;29;20205;-82
2022/09/19 20:41:50;;;;;;;9.20;1.97;;;;;;;13.98;49.80;101003.25;10102314;29;20230;-82
2022/09/19 20:47:12;;;;;;;11.53;1.60;;;;;;;13.44;50.43;101021.19;10111556;29;20278;-82
2022/09/19 20:52:34;;;;;;;10.47;1.90;;;;;;;14.45;47.23;101017.31;10102504;29;20194;-82
2022/09/19 20:57:56;;;;;;;10.37;1.40;;;;;;;14.32;47.57;101024.09;10115935;29;20300;-82
2022/09/19 21:03:18;;;;;;;8.67;1.30;;;;;;;14.12;47.65;101019.22;10098430;29;20206;-82
2022/09/19 21:08:40;;;;;;;7.77;1.50;;;;;;;14.06;47.62;101018.59;10098984;29;20250;-82
2022/09/19 21:14:02;;;;;;;9.43;1.33;;;;;;;13.80;48.08;101020.72;10079957;29;20266;-82
2022/09/19 21:19:24;;;;;;;5.40;1.43;;;;;;;13.73;48.64;101022.06;10082346;29;20285;-82
2022/09/19 21:24:46;;;;;;;9.90;2.40;;;;;;;13.65;48.38;101017.28;10113762;29;20301;-82
2022/09/19 21:30:09;;;;;;;9.27;1.40;;;;;;;13.50;48.28;101014.16;10112039;29;20253;-82
2022/09/19 21:35:32;;;;;;;8.13;1.50;;;;;;;13.85;47.88;101010.00;10094774;29;20217;-82
2022/09/19 21:40:58;;;;;;;9.33;1.93;;;;;;;13.92;47.14;101009.47;10107890;29;20229;-82
2022/09/19 21:46:23;;;;;;;7.73;1.53;;;;;;;13.96;47.56;101016.09;10098246;29;20214;-82
2022/09/19 21:51:45;;;;;;;7.93;1.40;;;;;;;14.06;46.84;101019.44;10093427;29;20270;-82
2022/09/19 21:57:07;;;;;;;7.03;1.43;;;;;;;13.27;48.68;101034.25;10093278;29;20202;-82
2022/09/19 22:02:29;;;;;;;5.70;1.40;;;;;;;13.57;47.87;101043.63;10106007;29;20241;-83
2022/09/19 22:07:51;;;;;;;6.70;1.63;;;;;;;13.65;47.38;101042.78;10094568;29;20198;-83
2022/09/19 22:13:13;;;;;;;5.00;1.30;;;;;;;13.12;48.30;101051.72;10089781;29;20230;-83
2022/09/19 22:18:36;;;;;;;11.80;1.50;;;;;;;13.10;48.45;101044.72;10086259;29;20245;-83
2022/09/19 22:24:00;;;;;;;6.97;1.87;;;;;;;13.15;49.23;101042.56;10082479;29;20254;-84
2022/09/19 22:29:23;;;;;;;6.13;1.50;;;;;;;13.31;48.10;101040.88;10099291;29;20250;-84
2022/09/19 22:34:45;;;;;;;12.97;2.60;;;;;;;13.16;49.38;101041.38;10083781;29;20603;-83
2022/09/19 22:40:08;;;;;;;7.33;1.90;;;;;;;13.77;47.77;101039.22;10107964;29;20225;-83
2022/09/19 22:45:29;;;;;;;7.80;1.80;;;;;;;13.34;48.34;101045.88;10079994;29;20245;-83
2022/09/19 22:50:52;;;;;;;6.73;1.97;;;;;;;12.90;48.85;101049.09;10074933;29;20234;-83
2022/09/19 22:56:17;;;;;;;7.00;1.90;;;;;;;12.75;49.71;101046.78;10095998;29;20206;-83
2022/09/19 23:01:39;;;;;;;8.03;1.90;;;;;;;12.82;49.71;101035.78;10079183;29;20527;-82
2022/09/19 23:07:01;;;;;;;5.93;1.63;;;;;;;12.91;48.94;101036.59;10076891;29;20608;-83
2022/09/19 23:12:23;;;;;;;7.87;1.87;;;;;;;13.00;49.04;101045.91;10097421;29;20238;-84
2022/09/19 23:17:45;;;;;;;6.17;1.93;;;;;;;11.87;51.63;101044.91;10107428;29;20281;-83
2022/09/19 23:23:07;;;;;;;8.33;2.37;;;;;;;13.16;47.92;101038.53;10096939;29;20226;-83
2022/09/19 23:28:29;;;;;;;9.77;2.17;;;;;;;12.52;50.14;101041.25;10098547;29;20202;-83
2022/09/19 23:33:51;;;;;;;7.17;1.90;;;;;;;13.08;48.97;101042.22;10101769;29;20210;-83
2022/09/19 23:39:13;;;;;;;9.97;1.93;;;;;;;13.25;48.33;101047.06;10087126;29;20261;-83
2022/09/19 23:44:35;;;;;;;12.00;2.50;;;;;;;11.62;52.11;101046.50;10096151;29;20206;-81
2022/09/19 23:49:57;;;;;;;9.27;1.83;;;;;;;12.37;50.40;101040.94;10094438;29;20202;-83
2022/09/19 23:55:19;;;;;;;9.67;2.17;;;;;;;12.93;49.03;101048.41;10099175;29;20226;-83
